Time;durP1;ratioP1;P1;durP2;ratioP2;P2;SDS_P1;SDS_P2;PMS_P1;PMS_P2;Temp;Humidity;BMP_temperature;BMP_pressure;BME280_temperature;BME280_humidity;BME280_pressure;Samples;Min_cycle;Max_cycle;Signal;HPM_P1;HPM_P2
2022/01/01 00:00:33;;;;;;;19.05;9.13;;;;;17.80;102111.00;;;;5031162;28;20221;-85
2022/01/01 00:03:00;;;;;;;15.82;8.93;;;;;17.80;102115.00;;;;5030965;28;20685;-85
2022/01/01 00:05:28;;;;;;;20.38;8.45;;;;;17.90;102115.00;;;;5030659;28;20203;-85
2022/01/01 00:07:57;;;;;;;20.83;9.60;;;;;17.80;102117.00;;;;5031249;28;20193;-84
2022/01/01 00:10:24;;;;;;;16.50;10.27;;;;;17.90;102119.00;;;;5031257;28;20223;-84
2022/01/01 00:12:53;;;;;;;20.27;11.13;;;;;17.90;102121.00;;;;5045805;28;20192;-84
2022/01/01 00:15:20;;;;;;;20.73;11.55;;;;;17.90;102126.00;;;;5038489;28;20211;-84
2022/01/01 00:17:48;;;;;;;19.55;11.30;;;;;17.90;102122.00;;;;5030519;28;20346;-85
2022/01/01 00:20:15;;;;;;;21.45;12.13;;;;;17.90;102117.00;;;;5030571;28;20204;-85
2022/01/01 00:22:44;;;;;;;21.13;11.25;;;;;17.80;102125.00;;;;5030764;28;20219;-85
2022/01/01 00:25:15;;;;;;;22.27;11.23;;;;;17.90;102122.00;;;;5030990;28;20209;-84
2022/01/01 00:27:42;;;;;;;20.58;11.63;;;;;17.90;102117.00;;;;5039576;28;20209;-85
2022/01/01 00:30:12;;;;;;;21.75;14.07;;;;;17.90;102117.00;;;;5050711;28;20227;-84
2022/01/01 00:32:40;;;;;;;18.20;12.45;;;;;17.90;102122.00;;;;5035339;28;20581;-84
2022/01/01 00:35:09;;;;;;;21.30;13.80;;;;;17.90;102113.00;;;;5030799;28;20215;-85
2022/01/01 00:37:37;;;;;;;21.70;13.50;;;;;17.90;102117.00;;;;5030532;28;20200;-85
2022/01/01 00:40:04;;;;;;;22.50;15.60;;;;;17.80;102107.00;;;;5030160;28;20610;-85
2022/01/01 00:42:32;;;;;;;21.20;14.85;;;;;17.80;102115.00;;;;5030931;28;20215;-85
2022/01/01 00:44:59;;;;;;;26.23;16.77;;;;;17.80;102112.00;;;;5030836;28;20236;-84
2022/01/01 00:47:28;;;;;;;26.77;17.63;;;;;17.80;102109.00;;;;5031118;28;20658;-82
2022/01/01 00:49:55;;;;;;;32.15;20.63;;;;;17.80;102108.00;;;;5030531;28;20235;-83
2022/01/01 00:52:22;;;;;;;37.30;19.90;;;;;17.80;102106.00;;;;5029833;28;20204;-83
2022/01/01 00:54:49;;;;;;;28.15;17.73;;;;;17.80;102105.00;;;;5030609;28;20200;-83
2022/01/01 00:57:16;;;;;;;24.33;16.00;;;;;17.80;102110.00;;;;5030269;28;20216;-83
2022/01/01 00:59:44;;;;;;;28.23;15.80;;;;;17.80;102112.00;;;;5029955;28;20231;-84
2022/01/01 01:02:11;;;;;;;26.73;14.35;;;;;17.80;102109.00;;;;5029682;28;20211;-84
2022/01/01 01:04:39;;;;;;;21.42;14.38;;;;;17.80;102104.00;;;;5029822;28;20193;-84
2022/01/01 01:07:07;;;;;;;22.10;12.85;;;;;17.80;102100.00;;;;5031126;28;20215;-84
2022/01/01 01:09:34;;;;;;;21.63;14.27;;;;;17.80;102111.00;;;;5029682;28;20231;-84
2022/01/01 01:12:01;;;;;;;22.77;14.05;;;;;17.80;102111.00;;;;5029061;28;20211;-84
2022/01/01 01:14:28;;;;;;;23.80;14.45;;;;;17.80;102112.00;;;;5029750;28;20670;-84
2022/01/01 01:16:56;;;;;;;24.13;15.43;;;;;17.80;102110.00;;;;5029617;28;20251;-84
2022/01/01 01:19:24;;;;;;;28.98;16.13;;;;;17.80;102109.00;;;;5030311;28;20212;-84
2022/01/01 01:21:52;;;;;;;23.73;15.48;;;;;17.80;102121.00;;;;5029967;28;20211;-83
2022/01/01 01:24:23;;;;;;;23.55;13.95;;;;;17.80;102125.00;;;;5048433;28;20191;-84
2022/01/01 01:26:51;;;;;;;22.45;13.05;;;;;17.80;102116.00;;;;5046745;28;20214;-84
2022/01/01 01:29:19;;;;;;;20.77;13.45;;;;;17.80;102127.00;;;;5048773;28;20346;-84
2022/01/01 01:31:47;;;;;;;21.25;12.30;;;;;17.80;102138.00;;;;5048470;28;20579;-84
2022/01/01 01:34:14;;;;;;;22.00;12.85;;;;;17.80;102136.00;;;;5049375;28;20693;-84
2022/01/01 01:36:42;;;;;;;19.30;12.23;;;;;17.80;102139.00;;;;5048943;28;20211;-84
2022/01/01 01:39:10;;;;;;;17.58;10.55;;;;;17.80;102137.00;;;;5046584;28;20207;-84
2022/01/01 01:41:38;;;;;;;18.58;10.75;;;;;17.80;102138.00;;;;5029369;28;20670;-84
2022/01/01 01:44:24;;;;;;;18.55;10.43;;;;;17.70;102147.00;;;;5028439;28;20660;-84
2022/01/01 01:46:51;;;;;;;16.42;9.63;;;;;17.80;102152.00;;;;5029178;28;20192;-84
2022/01/01 01:49:18;;;;;;;20.15;10.00;;;;;17.80;102141.00;;;;5029087;28;20639;-84
2022/01/01 01:51:46;;;;;;;17.90;9.57;;;;;17.80;102159.00;;;;5029253;28;20208;-83
2022/01/01 01:54:16;;;;;;;18.13;8.70;;;;;17.80;102163.00;;;;5028977;28;20216;-84
2022/01/01 01:56:45;;;;;;;19.48;10.20;;;;;17.80;102163.00;;;;5030019;28;20219;-84
2022/01/01 01:59:12;;;;;;;13.52;8.80;;;;;17.80;102157.00;;;;5030231;28;20231;-84
2022/01/01 02:01:40;;;;;;;18.73;8.10;;;;;17.80;102154.00;;;;5029689;28;20224;-84
2022/01/01 02:04:07;;;;;;;15.25;7.85;;;;;17.80;102149.00;;;;5029646;28;20192;-84
2022/01/01 02:06:35;;;;;;;19.90;7.53;;;;;17.80;102152.00;;;;5029774;28;20196;-84
2022/01/01 02:09:02;;;;;;;14.30;8.27;;;;;17.80;102148.00;;;;5028988;28;20211;-84
2022/01/01 02:11:31;;;;;;;15.75;7.93;;;;;17.80;102150.00;;;;5029501;28;20204;-83
2022/01/01 02:14:15;;;;;;;15.80;8.50;;;;;17.80;102143.00;;;;5030151;28;20219;-84
2022/01/01 02:19:45;;;;;;;15.18;7.93;;;;;17.70;102133.00;;;;5012869;28;20305;-84
2022/01/01 02:22:14;;;;;;;16.88;6.95;;;;;17.80;102140.00;;;;5029061;28;20692;-84
2022/01/01 02:24:42;;;;;;;17.15;8.48;;;;;17.80;102142.00;;;;5028742;28;20894;-84
2022/01/01 02:27:09;;;;;;;15.88;7.80;;;;;17.80;102150.00;;;;5031355;28;20204;-84
2022/01/01 02:29:37;;;;;;;13.95;7.18;;;;;17.80;102151.00;;;;5047769;28;20318;-84
2022/01/01 02:32:08;;;;;;;20.45;7.57;;;;;17.90;102147.00;;;;5030701;28;20295;-83
2022/01/01 02:34:35;;;;;;;16.08;7.82;;;;;17.90;102143.00;;;;5028692;28;20192;-84
2022/01/01 02:37:03;;;;;;;10.45;6.68;;;;;17.90;102141.00;;;;5029172;28;20204;-84
2022/01/01 02:39:31;;;;;;;14.45;8.13;;;;;17.90;102131.00;;;;5027254;28;20208;-83
2022/01/01 02:41:59;;;;;;;10.80;6.38;;;;;17.90;102133.00;;;;5028490;28;20211;-84
2022/01/01 02:44:28;;;;;;;12.07;6.43;;;;;17.90;102131.00;;;;5028679;28;20207;-84
2022/01/01 02:46:56;;;;;;;13.80;7.43;;;;;17.90;102128.00;;;;5028751;28;20646;-84
2022/01/01 02:49:24;;;;;;;16.02;6.97;;;;;18.00;102127.00;;;;5027757;28;20579;-84
2022/01/01 02:51:52;;;;;;;15.93;7.97;;;;;18.00;102119.00;;;;5028267;28;20266;-84
2022/01/01 02:54:19;;;;;;;17.02;8.88;;;;;18.00;102120.00;;;;5028431;28;20203;-83
2022/01/01 02:56:48;;;;;;;14.05;8.38;;;;;18.00;102114.00;;;;5027960;28;20657;-84
2022/01/01 02:59:16;;;;;;;17.85;8.50;;;;;18.00;102113.00;;;;5028561;28;20208;-84
2022/01/01 03:01:43;;;;;;;15.23;8.13;;;;;18.10;102112.00;;;;5028285;28;20220;-84
2022/01/01 03:04:11;;;;;;;12.20;7.78;;;;;18.10;102119.00;;;;5029028;28;20210;-84
2022/01/01 03:06:38;;;;;;;13.98;8.45;;;;;18.10;102119.00;;;;5027451;28;20192;-84
2022/01/01 03:09:05;;;;;;;13.88;7.72;;;;;18.10;102122.00;;;;5028346;28;20201;-84
2022/01/01 03:11:33;;;;;;;14.50;8.27;;;;;18.10;102121.00;;;;5028097;28;20235;-83
2022/01/01 03:14:01;;;;;;;14.10;7.80;;;;;18.10;102119.00;;;;5028420;28;20512;-83
2022/01/01 03:16:29;;;;;;;15.07;7.43;;;;;18.20;102132.00;;;;5027371;28;20244;-84
2022/01/01 03:18:56;;;;;;;13.25;7.78;;;;;18.20;102128.00;;;;5028388;28;20197;-84
2022/01/01 03:21:23;;;;;;;13.73;7.45;;;;;18.20;102119.00;;;;5028618;28;20211;-84
2022/01/01 03:23:50;;;;;;;15.85;7.28;;;;;18.20;102116.00;;;;5027641;28;20188;-84
2022/01/01 03:26:18;;;;;;;12.48;6.70;;;;;18.20;102120.00;;;;5033001;28;20207;-84
2022/01/01 03:28:45;;;;;;;14.35;7.43;;;;;18.30;102116.00;;;;5034998;28;20201;-84
2022/01/01 03:31:13;;;;;;;12.68;7.45;;;;;18.30;102110.00;;;;5028027;28;20230;-84
2022/01/01 03:33:41;;;;;;;16.23;7.80;;;;;18.30;102113.00;;;;5034420;28;20204;-84
2022/01/01 03:36:08;;;;;;;12.55;7.32;;;;;18.30;102104.00;;;;5047499;28;20199;-84
2022/01/01 03:38:35;;;;;;;13.82;7.00;;;;;18.40;102108.00;;;;5041201;28;20227;-84
2022/01/01 03:41:03;;;;;;;12.77;7.28;;;;;18.30;102109.00;;;;5027911;28;20677;-84
2022/01/01 03:43:30;;;;;;;15.70;6.95;;;;;18.30;102115.00;;;;5027435;28;20212;-84
2022/01/01 03:45:57;;;;;;;11.73;8.00;;;;;18.30;102112.00;;;;5027763;28;20655;-84
2022/01/01 03:48:26;;;;;;;17.35;8.90;;;;;18.30;102122.00;;;;5027767;28;20254;-84
2022/01/01 03:50:53;;;;;;;14.05;8.63;;;;;18.30;102119.00;;;;5027297;28;20232;-84
2022/01/01 03:53:21;;;;;;;15.00;8.68;;;;;18.30;102118.00;;;;5026894;28;20569;-84
2022/01/01 03:55:49;;;;;;;16.48;9.93;;;;;18.30;102115.00;;;;5027906;28;20239;-84
2022/01/01 03:58:16;;;;;;;17.15;10.20;;;;;18.40;102109.00;;;;5027786;28;20201;-84
2022/01/01 04:00:43;;;;;;;16.00;9.80;;;;;18.30;102107.00;;;;5027399;28;20221;-84
2022/01/01 04:03:12;;;;;;;19.58;10.00;;;;;18.40;102112.00;;;;5031218;28;20566;-84
2022/01/01 04:05:41;;;;;;;19.55;9.93;;;;;18.30;102116.00;;;;5030686;28;20200;-84
2022/01/01 04:08:09;;;;;;;17.15;10.85;;;;;18.40;102115.00;;;;5031596;28;20200;-84
2022/01/01 04:10:37;;;;;;;17.70;9.90;;;;;18.30;102119.00;;;;5030837;28;20254;-84
2022/01/01 04:13:06;;;;;;;19.00;10.50;;;;;18.30;102113.00;;;;5031203;28;20569;-84
2022/01/01 04:15:35;;;;;;;15.60;10.10;;;;;18.30;102110.00;;;;5030812;28;20200;-84
2022/01/01 04:18:09;;;;;;;13.38;9.38;;;;;18.30;102113.00;;;;5029953;28;20709;-84
2022/01/01 04:20:36;;;;;;;16.08;9.15;;;;;18.30;102110.00;;;;5030738;28;20716;-84
2022/01/01 04:23:09;;;;;;;15.90;8.88;;;;;18.30;102103.00;;;;5031070;28;20204;-84
2022/01/01 04:25:37;;;;;;;15.15;9.48;;;;;18.30;102110.00;;;;5030530;28;20198;-84
2022/01/01 04:28:05;;;;;;;15.23;9.65;;;;;18.40;102117.00;;;;5038790;28;20582;-84
2022/01/01 04:30:32;;;;;;;15.50;10.40;;;;;18.40;102117.00;;;;5036953;28;20257;-84
2022/01/01 04:33:00;;;;;;;15.30;9.52;;;;;18.40;102115.00;;;;5030894;28;20207;-84
2022/01/01 04:35:28;;;;;;;16.15;8.32;;;;;18.40;102113.00;;;;5030767;28;20207;-84
2022/01/01 04:37:55;;;;;;;13.77;8.73;;;;;18.40;102121.00;;;;5031070;28;20200;-84
2022/01/01 04:40:24;;;;;;;17.75;8.82;;;;;18.40;102112.00;;;;5031021;28;20204;-84
2022/01/01 04:42:52;;;;;;;13.00;8.48;;;;;18.40;102112.00;;;;5031018;28;20202;-84
2022/01/01 04:45:19;;;;;;;15.48;8.48;;;;;18.40;102115.00;;;;5050119;28;20196;-84
2022/01/01 04:47:46;;;;;;;13.93;8.45;;;;;18.40;102109.00;;;;5035232;28;20200;-84
2022/01/01 04:50:13;;;;;;;16.35;8.32;;;;;18.40;102118.00;;;;5029805;28;20205;-84
2022/01/01 04:52:42;;;;;;;13.27;7.82;;;;;18.40;102114.00;;;;5030387;28;20192;-84
2022/01/01 04:55:10;;;;;;;14.05;8.15;;;;;18.40;102115.00;;;;5030695;28;20203;-84
2022/01/01 04:57:39;;;;;;;10.68;6.78;;;;;18.40;102111.00;;;;5030087;28;20208;-84
2022/01/01 05:00:07;;;;;;;12.00;7.50;;;;;18.40;102108.00;;;;5030277;28;20220;-84
2022/01/01 05:02:34;;;;;;;11.95;7.57;;;;;18.40;102112.00;;;;5029225;28;20197;-84
2022/01/01 05:05:02;;;;;;;14.82;7.90;;;;;18.40;102109.00;;;;5030506;28;20204;-84
2022/01/01 05:07:29;;;;;;;12.65;7.45;;;;;18.30;102116.00;;;;5030133;28;20196;-84
2022/01/01 05:09:56;;;;;;;11.50;7.05;;;;;18.40;102118.00;;;;5030817;28;20200;-84
2022/01/01 05:12:23;;;;;;;13.70;7.57;;;;;18.40;102117.00;;;;5029173;28;20728;-83
2022/01/01 05:14:52;;;;;;;12.32;7.15;;;;;18.30;102127.00;;;;5029017;28;20197;-83
2022/01/01 05:17:19;;;;;;;14.65;7.13;;;;;18.30;102128.00;;;;5029794;28;20224;-84
2022/01/01 05:19:46;;;;;;;10.75;6.85;;;;;18.30;102112.00;;;;5029983;28;20510;-84
2022/01/01 05:22:14;;;;;;;11.18;6.30;;;;;18.30;102115.00;;;;5030821;28;20571;-84
2022/01/01 05:24:41;;;;;;;12.77;7.47;;;;;18.30;102125.00;;;;5028983;28;20197;-83
2022/01/01 05:27:08;;;;;;;10.15;6.22;;;;;18.30;102113.00;;;;5029829;28;20196;-84
2022/01/01 05:29:35;;;;;;;11.55;6.28;;;;;18.30;102115.00;;;;5049711;28;20211;-84
2022/01/01 05:32:04;;;;;;;11.25;6.93;;;;;18.30;102119.00;;;;5049412;28;20227;-84
2022/01/01 05:34:32;;;;;;;11.77;5.88;;;;;18.30;102120.00;;;;5048904;28;20203;-84
2022/01/01 05:36:59;;;;;;;8.13;6.05;;;;;18.30;102115.00;;;;5048463;28;20199;-84
2022/01/01 05:39:26;;;;;;;9.15;5.80;;;;;18.30;102103.00;;;;5029192;28;20192;-83
2022/01/01 05:41:54;;;;;;;9.25;6.00;;;;;18.30;102105.00;;;;5029494;28;20208;-84
2022/01/01 05:44:22;;;;;;;12.88;6.80;;;;;18.30;102103.00;;;;5028944;28;20291;-84
2022/01/01 05:46:50;;;;;;;10.77;5.80;;;;;18.30;102104.00;;;;5028297;28;20963;-83
2022/01/01 05:49:19;;;;;;;8.18;5.57;;;;;18.30;102101.00;;;;5029457;28;20211;-83
2022/01/01 05:51:46;;;;;;;8.40;5.22;;;;;18.30;102102.00;;;;5029123;28;20228;-83
2022/01/01 05:54:14;;;;;;;7.28;5.13;;;;;18.30;102096.00;;;;5030480;28;20204;-84
2022/01/01 05:56:41;;;;;;;8.88;5.53;;;;;18.30;102097.00;;;;5048462;28;20203;-83
2022/01/01 05:59:08;;;;;;;9.43;5.40;;;;;18.30;102094.00;;;;5048569;28;20199;-84
2022/01/01 06:01:35;;;;;;;7.93;5.65;;;;;18.30;102093.00;;;;5048491;28;20215;-83
2022/01/01 06:04:03;;;;;;;7.70;4.97;;;;;18.30;102088.00;;;;5048976;28;20217;-83
2022/01/01 06:06:31;;;;;;;8.32;4.90;;;;;18.20;102084.00;;;;5048916;28;20581;-83
2022/01/01 06:08:59;;;;;;;8.60;5.40;;;;;18.20;102086.00;;;;5049019;28;20203;-84
2022/01/01 06:11:26;;;;;;;7.07;4.78;;;;;18.20;102090.00;;;;5043498;28;20236;-83
2022/01/01 06:13:54;;;;;;;8.77;4.68;;;;;18.10;102090.00;;;;5028579;28;20212;-83
2022/01/01 06:16:21;;;;;;;6.78;4.90;;;;;18.10;102081.00;;;;5028610;28;20235;-83
2022/01/01 06:18:48;;;;;;;9.45;5.47;;;;;18.00;102093.00;;;;5028577;28;20208;-83
2022/01/01 06:21:15;;;;;;;9.40;5.28;;;;;18.00;102105.00;;;;5028819;28;20224;-83
2022/01/01 06:23:44;;;;;;;7.75;5.18;;;;;17.90;102098.00;;;;5027649;28;20200;-84
2022/01/01 06:26:11;;;;;;;7.78;4.97;;;;;17.90;102102.00;;;;5036961;28;20203;-83
2022/01/01 06:28:38;;;;;;;8.25;5.10;;;;;17.90;102096.00;;;;5032442;28;20211;-84
2022/01/01 06:31:05;;;;;;;8.90;5.32;;;;;17.80;102093.00;;;;5028121;28;20224;-83
2022/01/01 06:33:33;;;;;;;5.88;4.45;;;;;17.80;102091.00;;;;5028391;28;20212;-83
2022/01/01 06:36:00;;;;;;;8.48;4.78;;;;;17.80;102094.00;;;;5028747;28;20197;-83
2022/01/01 06:38:27;;;;;;;7.05;5.18;;;;;17.70;102082.00;;;;5027876;28;20204;-83
2022/01/01 06:40:56;;;;;;;8.07;4.20;;;;;17.70;102093.00;;;;5028794;28;20201;-83
2022/01/01 06:43:23;;;;;;;11.00;4.75;;;;;17.70;102092.00;;;;5027570;28;20196;-84
2022/01/01 06:45:51;;;;;;;9.10;5.05;;;;;17.70;102100.00;;;;5028838;28;20542;-83
2022/01/01 06:48:18;;;;;;;7.50;4.50;;;;;17.70;102105.00;;;;5028175;28;20588;-83
2022/01/01 06:50:45;;;;;;;7.68;4.57;;;;;17.70;102114.00;;;;5027987;28;20212;-83
2022/01/01 06:53:13;;;;;;;7.25;4.80;;;;;17.70;102128.00;;;;5027739;28;20678;-83
2022/01/01 06:55:41;;;;;;;8.10;4.70;;;;;17.70;102131.00;;;;5028050;28;20215;-84
2022/01/01 06:58:10;;;;;;;8.93;4.57;;;;;17.70;102132.00;;;;5028131;28;20204;-84
2022/01/01 07:00:38;;;;;;;6.65;4.47;;;;;17.70;102130.00;;;;5034379;28;20239;-84
2022/01/01 07:03:05;;;;;;;12.15;4.57;;;;;17.70;102141.00;;;;5038499;28;20678;-83
2022/01/01 07:05:33;;;;;;;7.00;3.88;;;;;17.70;102132.00;;;;5027937;28;20196;-84
2022/01/01 07:08:00;;;;;;;8.57;4.68;;;;;17.70;102132.00;;;;5028209;28;20207;-83
2022/01/01 07:10:28;;;;;;;11.07;4.60;;;;;17.70;102133.00;;;;5028223;28;20663;-84
2022/01/01 07:12:55;;;;;;;8.05;3.92;;;;;17.70;102136.00;;;;5028100;28;20636;-84
2022/01/01 07:15:24;;;;;;;5.97;3.67;;;;;17.70;102128.00;;;;5027897;28;20204;-84
2022/01/01 07:17:51;;;;;;;5.75;3.83;;;;;17.70;102132.00;;;;5027410;28;20730;-84
2022/01/01 07:20:18;;;;;;;5.22;3.50;;;;;17.70;102131.00;;;;5027921;28;20221;-84
2022/01/01 07:22:47;;;;;;;7.43;3.85;;;;;17.70;102139.00;;;;5027865;28;20608;-84
2022/01/01 07:25:15;;;;;;;7.63;4.20;;;;;17.70;102139.00;;;;5028052;28;20204;-84
2022/01/01 07:27:43;;;;;;;8.02;3.67;;;;;17.70;102140.00;;;;5030270;28;20662;-84
2022/01/01 07:30:11;;;;;;;7.30;3.13;;;;;17.70;102141.00;;;;5048001;28;20199;-84
2022/01/01 07:32:44;;;;;;;5.22;3.53;;;;;17.70;102143.00;;;;5047245;28;20246;-84
2022/01/01 07:35:12;;;;;;;5.95;3.75;;;;;17.70;102134.00;;;;5047987;28;20611;-84
2022/01/01 07:37:40;;;;;;;5.53;3.03;;;;;17.70;102137.00;;;;5036142;28;20219;-84
2022/01/01 07:40:11;;;;;;;5.07;2.78;;;;;17.70;102140.00;;;;5031025;28;20196;-84
2022/01/01 07:42:39;;;;;;;5.03;2.55;;;;;17.70;102145.00;;;;5031766;28;20197;-84
2022/01/01 07:45:07;;;;;;;2.80;2.13;;;;;17.70;102139.00;;;;5031502;28;20204;-84
2022/01/01 07:47:35;;;;;;;6.25;2.83;;;;;17.70;102147.00;;;;5031153;28;20208;-84
2022/01/01 07:50:04;;;;;;;4.47;2.63;;;;;17.70;102148.00;;;;5031600;28;20212;-84
2022/01/01 07:52:31;;;;;;;4.47;2.80;;;;;17.70;102138.00;;;;5031367;28;20219;-84
2022/01/01 07:54:59;;;;;;;5.78;2.33;;;;;17.70;102132.00;;;;5031443;28;20646;-84
2022/01/01 07:57:26;;;;;;;4.38;2.60;;;;;17.70;102133.00;;;;5031006;28;20208;-85
2022/01/01 07:59:53;;;;;;;5.50;2.38;;;;;17.70;102141.00;;;;5032126;28;20690;-85
2022/01/01 08:02:20;;;;;;;5.75;2.92;;;;;17.70;102134.00;;;;5031585;28;20204;-84
2022/01/01 08:04:48;;;;;;;3.42;1.90;;;;;17.80;102148.00;;;;5030905;28;20681;-85
2022/01/01 08:07:16;;;;;;;5.72;2.28;;;;;17.80;102153.00;;;;5031238;28;20193;-84
2022/01/01 08:09:44;;;;;;;3.45;2.05;;;;;17.80;102149.00;;;;5030394;28;20204;-85
2022/01/01 08:12:11;;;;;;;4.43;2.33;;;;;17.80;102157.00;;;;5038666;28;20242;-85
2022/01/01 08:14:39;;;;;;;3.13;2.33;;;;;17.80;102146.00;;;;5050707;28;20647;-84
2022/01/01 08:17:07;;;;;;;5.10;2.08;;;;;17.80;102143.00;;;;5050506;28;20231;-84
2022/01/01 08:19:35;;;;;;;5.65;2.25;;;;;17.90;102145.00;;;;5049887;28;20214;-86
2022/01/01 08:22:03;;;;;;;3.20;1.77;;;;;17.90;102159.00;;;;5050955;28;20579;-84
2022/01/01 08:24:31;;;;;;;4.95;2.20;;;;;17.90;102148.00;;;;5050242;28;20253;-84
2022/01/01 08:27:01;;;;;;;2.65;1.95;;;;;17.90;102147.00;;;;5046549;28;20201;-84
2022/01/01 08:29:29;;;;;;;4.15;2.10;;;;;17.90;102143.00;;;;5050230;28;20235;-83
2022/01/01 08:31:57;;;;;;;3.97;2.40;;;;;18.00;102139.00;;;;5050983;28;20226;-84
2022/01/01 08:34:24;;;;;;;4.75;2.20;;;;;18.00;102134.00;;;;5050439;28;20626;-84
2022/01/01 08:36:52;;;;;;;4.05;2.50;;;;;18.00;102135.00;;;;5050738;28;20238;-84
2022/01/01 08:39:20;;;;;;;4.15;2.15;;;;;18.00;102139.00;;;;5050047;28;20677;-85
2022/01/01 08:41:49;;;;;;;3.20;2.00;;;;;18.00;102133.00;;;;5050297;28;20204;-85
2022/01/01 08:44:17;;;;;;;2.25;1.60;;;;;18.10;102142.00;;;;5047251;28;20211;-83
2022/01/01 08:46:47;;;;;;;4.32;1.98;;;;;18.10;102142.00;;;;5030420;28;20207;-84
2022/01/01 08:49:15;;;;;;;4.05;1.98;;;;;18.10;102147.00;;;;5030285;28;20204;-85
2022/01/01 08:51:44;;;;;;;4.57;2.25;;;;;18.10;102141.00;;;;5030030;28;20228;-84
2022/01/01 08:54:13;;;;;;;3.38;2.13;;;;;18.10;102142.00;;;;5030741;28;20207;-84
2022/01/01 08:56:44;;;;;;;4.50;1.95;;;;;18.10;102150.00;;;;5030865;28;20634;-86
2022/01/01 08:59:13;;;;;;;5.43;2.33;;;;;18.10;102160.00;;;;5031019;28;20201;-84
2022/01/01 09:01:40;;;;;;;4.15;2.30;;;;;18.20;102154.00;;;;5031159;28;20789;-84
2022/01/01 09:04:07;;;;;;;4.85;2.58;;;;;18.20;102155.00;;;;5030793;28;20287;-84
2022/01/01 09:06:34;;;;;;;6.35;2.80;;;;;18.20;102158.00;;;;5030576;28;20208;-84
2022/01/01 09:09:02;;;;;;;5.03;2.55;;;;;18.20;102154.00;;;;5030413;28;20250;-83
2022/01/01 09:11:29;;;;;;;5.18;2.47;;;;;18.20;102150.00;;;;5030855;28;20197;-83
2022/01/01 09:13:56;;;;;;;4.13;2.65;;;;;18.30;102141.00;;;;5038655;28;20203;-84
2022/01/01 09:16:29;;;;;;;5.65;2.42;;;;;18.30;102139.00;;;;5051038;28;20231;-84
2022/01/01 09:18:57;;;;;;;5.63;2.85;;;;;18.30;102133.00;;;;5041573;28;20232;-85
2022/01/01 09:21:25;;;;;;;3.20;2.05;;;;;18.30;102142.00;;;;5030454;28;20261;-84
2022/01/01 09:23:53;;;;;;;3.85;2.30;;;;;18.30;102136.00;;;;5046015;28;20249;-84
2022/01/01 09:26:20;;;;;;;3.33;2.15;;;;;18.40;102140.00;;;;5050453;28;20203;-84
2022/01/01 09:28:48;;;;;;;4.78;2.67;;;;;18.40;102133.00;;;;5041520;28;20288;-84
2022/01/01 09:31:15;;;;;;;5.22;2.58;;;;;18.40;102139.00;;;;5049771;28;20200;-85
2022/01/01 09:33:44;;;;;;;5.50;2.83;;;;;18.40;102132.00;;;;5049885;28;20234;-86
2022/01/01 09:36:14;;;;;;;4.50;2.40;;;;;18.40;102138.00;;;;5038693;28;20208;-85
2022/01/01 09:38:42;;;;;;;6.68;2.92;;;;;18.40;102131.00;;;;5029638;28;20211;-84
2022/01/01 09:41:10;;;;;;;4.95;2.28;;;;;18.40;102136.00;;;;5029919;28;20203;-84
2022/01/01 09:43:38;;;;;;;3.42;2.40;;;;;18.50;102131.00;;;;5029535;28;20200;-84
2022/01/01 09:46:06;;;;;;;6.80;2.50;;;;;18.50;102121.00;;;;5029927;28;20200;-84
2022/01/01 09:48:33;;;;;;;8.60;2.72;;;;;18.50;102129.00;;;;5029954;28;20192;-85
2022/01/01 09:51:04;;;;;;;4.15;2.45;;;;;18.50;102119.00;;;;5029979;28;20207;-84
2022/01/01 09:53:35;;;;;;;4.80;2.42;;;;;18.50;102120.00;;;;5030431;28;20228;-84
2022/01/01 09:56:03;;;;;;;3.20;2.38;;;;;18.50;102103.00;;;;5029516;28;20211;-84
2022/01/01 09:58:32;;;;;;;3.75;2.90;;;;;18.50;102105.00;;;;5029200;28;20197;-84
2022/01/01 10:01:00;;;;;;;7.85;3.17;;;;;18.50;102099.00;;;;5029456;28;20220;-84
2022/01/01 10:03:29;;;;;;;5.53;2.60;;;;;18.60;102108.00;;;;5029442;28;20677;-83
2022/01/01 10:06:03;;;;;;;4.90;2.67;;;;;18.50;102090.00;;;;5029746;28;20690;-85
2022/01/01 10:08:30;;;;;;;5.57;2.53;;;;;18.60;102094.00;;;;5029103;28;20298;-85
2022/01/01 10:10:58;;;;;;;6.63;3.03;;;;;18.60;102088.00;;;;5029597;28;20207;-83
2022/01/01 10:13:30;;;;;;;5.43;2.90;;;;;18.60;102101.00;;;;5029655;28;20228;-83
2022/01/01 10:15:59;;;;;;;4.78;2.83;;;;;18.60;102094.00;;;;5029582;28;20193;-84
2022/01/01 10:18:29;;;;;;;3.78;2.70;;;;;18.70;102091.00;;;;5029087;28;20203;-84
2022/01/01 10:21:02;;;;;;;5.95;3.67;;;;;18.70;102093.00;;;;5028978;28;20216;-83
2022/01/01 10:23:31;;;;;;;4.00;3.13;;;;;18.70;102077.00;;;;5028223;28;20239;-83
2022/01/01 10:29:09;;;;;;;4.60;3.15;;;;;18.70;102079.00;;;;5048752;28;20198;-84
2022/01/01 10:31:38;;;;;;;4.97;3.20;;;;;18.80;102087.00;;;;5047906;28;20561;-84
2022/01/01 10:34:14;;;;;;;7.22;4.28;;;;;18.80;102087.00;;;;5048541;28;20715;-84
2022/01/01 10:36:46;;;;;;;5.88;3.17;;;;;18.80;102098.00;;;;5047921;28;20211;-84
2022/01/01 10:39:14;;;;;;;5.47;3.13;;;;;18.80;102092.00;;;;5048263;28;20203;-84
2022/01/01 10:41:50;;;;;;;6.50;3.60;;;;;18.80;102091.00;;;;5047783;28;20195;-84
2022/01/01 10:44:21;;;;;;;5.30;2.88;;;;;18.90;102096.00;;;;5036529;28;20203;-84
2022/01/01 10:46:48;;;;;;;3.67;3.20;;;;;18.90;102089.00;;;;5027781;28;20211;-85
2022/01/01 10:52:22;;;;;;;7.93;3.22;;;;;18.90;102069.00;;;;5028376;28;20224;-85
2022/01/01 10:54:52;;;;;;;5.65;3.92;;;;;19.00;102065.00;;;;5028105;28;20213;-84
2022/01/01 10:57:23;;;;;;;4.97;3.05;;;;;18.90;102075.00;;;;5027487;28;20993;-84
2022/01/01 10:59:51;;;;;;;5.45;3.35;;;;;19.00;102071.00;;;;5026447;28;20204;-84
2022/01/01 11:02:24;;;;;;;8.48;4.00;;;;;19.00;102069.00;;;;5026971;28;20219;-83
2022/01/01 11:04:51;;;;;;;3.75;2.67;;;;;19.00;102074.00;;;;5027154;28;20286;-86
2022/01/01 11:07:27;;;;;;;4.80;3.70;;;;;19.00;102085.00;;;;5026569;28;20208;-84
2022/01/01 11:09:57;;;;;;;4.53;3.30;;;;;19.00;102079.00;;;;5026063;28;20291;-85
2022/01/01 11:12:27;;;;;;;4.43;3.30;;;;;19.10;102075.00;;;;5028822;28;20224;-85
2022/01/01 11:14:54;;;;;;;5.68;3.45;;;;;19.10;102067.00;;;;5031395;28;20200;-84
2022/01/01 11:17:23;;;;;;;5.30;3.08;;;;;19.10;102064.00;;;;5031238;28;20231;-84
2022/01/01 11:19:50;;;;;;;7.97;3.47;;;;;19.20;102073.00;;;;5031476;28;20208;-84
2022/01/01 11:22:18;;;;;;;5.22;3.42;;;;;19.20;102071.00;;;;5032256;28;20207;-84
2022/01/01 11:24:48;;;;;;;7.22;3.65;;;;;19.30;102069.00;;;;5032484;28;20262;-84
2022/01/01 11:27:15;;;;;;;4.97;3.22;;;;;19.40;102069.00;;;;5031256;28;20207;-84
2022/01/01 11:29:49;;;;;;;4.78;3.85;;;;;19.40;102065.00;;;;5047888;28;20203;-84
2022/01/01 11:32:19;;;;;;;4.97;3.67;;;;;19.40;102064.00;;;;5051816;28;20651;-84
2022/01/01 11:34:49;;;;;;;7.32;3.97;;;;;19.40;102064.00;;;;5044667;28;20206;-84
2022/01/01 11:37:16;;;;;;;5.78;3.80;;;;;19.50;102064.00;;;;5032543;28;20287;-84
2022/01/01 11:39:45;;;;;;;5.50;4.00;;;;;19.50;102056.00;;;;5038234;28;20207;-84
2022/01/01 11:42:14;;;;;;;6.90;3.72;;;;;19.50;102048.00;;;;5051635;28;20196;-84
2022/01/01 11:44:49;;;;;;;8.10;3.80;;;;;19.50;102044.00;;;;5051368;28;20203;-84
2022/01/01 11:47:20;;;;;;;4.70;3.05;;;;;19.60;102036.00;;;;5050981;28;20211;-83
2022/01/01 11:49:48;;;;;;;6.75;3.20;;;;;19.60;102037.00;;;;5051393;28;20205;-84
2022/01/01 11:52:36;;;;;;;5.97;3.63;;;;;19.50;102036.00;;;;5039662;28;20204;-84
2022/01/01 11:55:10;;;;;;;5.75;4.20;;;;;19.60;102036.00;;;;5030942;28;20613;-84
2022/01/01 11:57:37;;;;;;;4.47;3.13;;;;;19.70;102042.00;;;;5031456;28;20201;-84
2022/01/01 12:00:13;;;;;;;4.93;3.83;;;;;19.60;102055.00;;;;5031002;28;20235;-85
2022/01/01 12:02:48;;;;;;;4.38;2.75;;;;;19.70;102039.00;;;;5030774;28;20581;-85
2022/01/01 12:05:27;;;;;;;4.43;3.05;;;;;19.70;102023.00;;;;5031016;28;20211;-84
2022/01/01 12:07:57;;;;;;;4.53;3.33;;;;;19.70;102016.00;;;;5031880;28;20731;-84
2022/01/01 12:10:35;;;;;;;4.55;3.50;;;;;19.70;102009.00;;;;5031509;28;20204;-84
2022/01/01 12:13:04;;;;;;;6.70;3.50;;;;;19.80;102001.00;;;;5030364;28;20586;-85
2022/01/01 12:15:38;;;;;;;6.53;3.00;;;;;19.80;102001.00;;;;5030615;28;20204;-85
2022/01/01 12:18:07;;;;;;;4.10;3.15;;;;;19.80;101998.00;;;;5030856;28;20214;-85